createdAt,value
2024-03-07T00:00:27.350Z,6.07
2024-03-07T00:04:28.835Z,5.38
2024-03-07T00:08:31.639Z,6.07
2024-03-07T00:12:33.915Z,8.15
2024-03-07T00:16:35.951Z,5.35
2024-03-07T00:20:37.430Z,5.93
2024-03-07T00:24:39.896Z,4.88
2024-03-07T00:28:41.695Z,4.93
2024-03-07T00:32:43.261Z,6.40
2024-03-07T00:36:44.876Z,6.07
2024-03-07T00:40:46.353Z,7.20
2024-03-07T00:44:47.933Z,7.07
2024-03-07T00:48:49.647Z,8.57
2024-03-07T00:52:51.235Z,6.30
2024-03-07T00:56:53.045Z,6.72
2024-03-07T01:00:57.149Z,6.32
2024-03-07T01:04:59.329Z,6.45
2024-03-07T01:09:00.873Z,7.60
2024-03-07T01:13:03.303Z,6.72
2024-03-07T01:17:08.034Z,6.20
2024-03-07T01:21:09.581Z,6.47
2024-03-07T01:25:11.113Z,6.22
2024-03-07T01:29:13.075Z,5.78
2024-03-07T01:33:14.611Z,6.30
2024-03-07T01:37:16.482Z,5.57
2024-03-07T01:41:18.318Z,6.00
2024-03-07T01:45:19.936Z,5.80
2024-03-07T01:49:21.484Z,4.60
2024-03-07T01:53:24.098Z,5.53
2024-03-07T01:57:26.784Z,5.88
2024-03-07T02:01:28.582Z,5.35
2024-03-07T02:05:30.081Z,6.22
2024-03-07T02:09:32.651Z,6.53
2024-03-07T02:13:34.151Z,4.72
2024-03-07T02:17:37.032Z,6.25
2024-03-07T02:21:38.524Z,6.43
2024-03-07T02:25:40.078Z,6.00
2024-03-07T02:29:43.057Z,5.35
2024-03-07T02:33:44.624Z,6.80
2024-03-07T02:37:47.312Z,5.55
2024-03-07T02:41:49.180Z,4.80
2024-03-07T02:45:51.068Z,5.70
2024-03-07T02:49:52.534Z,5.80
2024-03-07T02:53:54.080Z,5.82
2024-03-07T02:57:55.607Z,4.88
2024-03-07T03:01:57.043Z,5.15
2024-03-07T03:05:59.427Z,6.10
2024-03-07T03:10:00.900Z,6.03
2024-03-07T03:14:02.382Z,5.93
2024-03-07T03:18:04.318Z,5.40
2024-03-07T03:22:06.345Z,7.70
2024-03-07T03:26:08.035Z,6.45
2024-03-07T03:30:14.369Z,6.55
2024-03-07T03:38:19.252Z,7.00
2024-03-07T03:42:21.289Z,7.43
2024-03-07T03:46:24.536Z,7.65
2024-03-07T03:50:26.018Z,5.57
2024-03-07T03:54:27.626Z,7.28
2024-03-07T03:58:29.890Z,8.45
2024-03-07T04:02:31.401Z,7.18
2024-03-07T04:06:33.034Z,6.10
2024-03-07T04:10:34.558Z,6.78
2024-03-07T04:14:36.388Z,6.22
2024-03-07T04:18:37.956Z,7.53
2024-03-07T04:22:40.018Z,9.68
2024-03-07T04:26:44.361Z,7.45
2024-03-07T04:30:45.908Z,8.48
2024-03-07T04:34:47.653Z,9.88
2024-03-07T04:38:49.185Z,11.65
2024-03-07T04:42:51.242Z,11.68
2024-03-07T04:46:56.577Z,13.63
2024-03-07T04:50:59.592Z,12.98
2024-03-07T04:55:01.256Z,13.35
2024-03-07T04:59:02.777Z,10.75
2024-03-07T05:03:05.987Z,15.52
2024-03-07T05:07:07.554Z,15.35
2024-03-07T05:11:09.677Z,16.83
2024-03-07T05:15:11.500Z,12.65
2024-03-07T05:19:13.304Z,12.98
2024-03-07T05:23:17.720Z,18.33
2024-03-07T05:27:19.724Z,18.17
2024-03-07T05:31:22.019Z,14.60
2024-03-07T05:35:23.574Z,13.23
2024-03-07T05:39:25.559Z,14.73
2024-03-07T05:43:27.064Z,15.43
2024-03-07T05:47:28.644Z,14.18
2024-03-07T05:51:30.686Z,16.05
2024-03-07T05:55:33.381Z,13.18
2024-03-07T05:59:35.022Z,16.05
2024-03-07T06:03:36.596Z,14.75
2024-03-07T06:07:38.042Z,14.50
2024-03-07T06:11:43.108Z,16.23
2024-03-07T06:15:46.967Z,15.18
2024-03-07T06:19:49.424Z,14.73
2024-03-07T06:24:00.282Z,14.38
2024-03-07T06:28:10.027Z,14.80
2024-03-07T06:32:12.895Z,14.25
2024-03-07T06:36:14.446Z,17.75
2024-03-07T06:40:22.025Z,18.23
2024-03-07T06:44:24.846Z,18.30
2024-03-07T06:48:26.780Z,18.42
2024-03-07T06:52:28.561Z,24.55
2024-03-07T06:56:30.067Z,16.63
2024-03-07T07:00:33.092Z,19.77
2024-03-07T07:04:42.842Z,17.10
2024-03-07T07:08:47.888Z,22.52
2024-03-07T07:12:49.651Z,17.73
2024-03-07T07:16:51.157Z,18.42
2024-03-07T07:20:55.660Z,24.45
2024-03-07T07:24:57.246Z,18.25
2024-03-07T07:28:59.217Z,18.77
2024-03-07T07:33:00.894Z,19.20
2024-03-07T07:37:02.399Z,19.63
2024-03-07T07:41:04.211Z,22.70
2024-03-07T07:45:12.403Z,18.52
2024-03-07T07:49:13.893Z,18.98
2024-03-07T07:53:15.365Z,18.88
2024-03-07T07:57:16.849Z,19.63
2024-03-07T08:01:18.565Z,21.13
2024-03-07T08:05:28.594Z,21.98
2024-03-07T08:09:30.330Z,19.30
2024-03-07T08:13:31.770Z,23.20
2024-03-07T08:17:33.370Z,24.27
2024-03-07T08:21:34.897Z,21.50
2024-03-07T08:25:36.541Z,24.45
2024-03-07T08:29:38.022Z,24.35
2024-03-07T08:33:39.962Z,27.33
2024-03-07T08:37:43.232Z,24.40
2024-03-07T08:41:47.602Z,23.98
2024-03-07T08:45:49.246Z,24.48
2024-03-07T08:49:50.753Z,23.90
2024-03-07T08:53:52.268Z,22.85
2024-03-07T08:57:54.127Z,24.38
2024-03-07T09:01:56.437Z,22.48
2024-03-07T09:05:57.912Z,20.65
2024-03-07T09:09:59.965Z,24.95
2024-03-07T09:14:01.434Z,18.15
2024-03-07T09:18:05.355Z,21.08
2024-03-07T09:22:09.135Z,27.08
2024-03-07T09:26:10.746Z,17.60
2024-03-07T09:30:13.703Z,18.65
2024-03-07T09:34:15.960Z,21.00
2024-03-07T09:38:17.736Z,20.88
2024-03-07T09:42:19.372Z,24.40
2024-03-07T09:46:24.584Z,21.27
2024-03-07T09:50:29.356Z,20.27
2024-03-07T09:54:30.908Z,23.52
2024-03-07T09:58:36.965Z,22.20
2024-03-07T10:02:42.183Z,22.05
2024-03-07T10:06:46.470Z,22.85
2024-03-07T10:10:48.947Z,20.23
2024-03-07T10:14:58.299Z,28.35
2024-03-07T10:19:02.876Z,21.95
2024-03-07T10:23:04.860Z,25.83
2024-03-07T10:27:07.145Z,22.40
2024-03-07T10:31:12.276Z,19.08
2024-03-07T10:35:15.371Z,19.10
2024-03-07T10:39:17.457Z,18.92
2024-03-07T10:43:21.446Z,20.00
2024-03-07T10:47:28.445Z,18.00
2024-03-07T10:51:40.801Z,18.27
2024-03-07T10:55:57.928Z,17.67
2024-03-07T11:00:24.726Z,26.67
2024-03-07T11:04:27.811Z,16.20
2024-03-07T11:08:29.733Z,14.73
2024-03-07T11:12:31.663Z,20.65
2024-03-07T11:16:34.488Z,15.43
2024-03-07T11:20:37.971Z,16.55
2024-03-07T11:24:39.595Z,17.83
2024-03-07T11:28:42.741Z,18.65
2024-03-07T11:32:45.977Z,14.57
2024-03-07T11:36:50.797Z,11.82
2024-03-07T11:40:52.489Z,11.40
2024-03-07T11:44:57.381Z,15.27
2024-03-07T11:49:01.098Z,12.70
2024-03-07T11:53:07.099Z,13.05
2024-03-07T11:57:14.068Z,11.25
2024-03-07T12:01:17.781Z,13.70
2024-03-07T12:05:20.890Z,14.00
2024-03-07T12:09:24.853Z,12.32
2024-03-07T12:13:27.658Z,10.23
2024-03-07T12:17:31.307Z,13.77
2024-03-07T12:21:33.927Z,10.65
2024-03-07T12:25:44.613Z,12.77
2024-03-07T12:29:49.360Z,9.90
2024-03-07T12:33:53.165Z,12.48
2024-03-07T12:37:55.470Z,16.33
2024-03-07T12:42:00.450Z,13.35
2024-03-07T12:46:02.076Z,11.45
2024-03-07T12:50:08.502Z,14.00
2024-03-07T12:54:13.294Z,13.40
2024-03-07T12:58:16.316Z,11.57
2024-03-07T13:02:17.939Z,10.55
2024-03-07T13:06:26.484Z,9.35
2024-03-07T13:10:28.263Z,11.98
2024-03-07T13:14:33.853Z,10.60
2024-03-07T13:18:36.230Z,11.07
2024-03-07T13:22:50.367Z,12.23
2024-03-07T13:26:51.930Z,11.43
2024-03-07T13:30:56.476Z,10.38
2024-03-07T13:35:00.926Z,8.73
2024-03-07T13:39:03.980Z,9.05
2024-03-07T13:43:07.435Z,9.57
2024-03-07T13:47:08.981Z,14.20
2024-03-07T13:51:10.816Z,9.77
2024-03-07T13:55:13.024Z,10.73
2024-03-07T13:59:14.401Z,8.00
2024-03-07T14:03:30.817Z,11.23
2024-03-07T14:08:01.268Z,10.60
2024-03-07T14:12:39.419Z,8.20
2024-03-07T14:17:13.368Z,9.05
2024-03-07T14:21:49.756Z,9.07
2024-03-07T14:26:33.084Z,9.80
2024-03-07T14:30:59.983Z,9.70
2024-03-07T14:39:05.761Z,8.13
2024-03-07T14:43:07.725Z,8.85
2024-03-07T14:47:12.755Z,9.70
2024-03-07T14:51:15.565Z,7.65
2024-03-07T14:55:20.068Z,8.23
2024-03-07T14:59:22.220Z,8.55
2024-03-07T15:03:25.714Z,8.15
2024-03-07T15:07:27.239Z,8.32
2024-03-07T15:11:36.607Z,7.18
2024-03-07T15:15:38.483Z,9.90
2024-03-07T15:19:39.964Z,7.82
2024-03-07T15:23:41.484Z,6.75
2024-03-07T15:27:42.986Z,6.05
2024-03-07T15:31:44.465Z,7.60
2024-03-07T15:35:47.411Z,7.93
2024-03-07T15:39:49.001Z,7.95
2024-03-07T15:43:50.702Z,8.45
2024-03-07T15:47:54.424Z,6.75
2024-03-07T15:51:56.500Z,6.85
2024-03-07T15:55:58.917Z,7.22
2024-03-07T16:00:00.600Z,6.05
2024-03-07T16:04:02.201Z,6.03
2024-03-07T16:08:07.363Z,8.95
2024-03-07T16:12:09.445Z,6.67
2024-03-07T16:16:10.967Z,7.32
2024-03-07T16:20:15.584Z,8.15
2024-03-07T16:24:17.188Z,7.10
2024-03-07T16:28:22.819Z,7.55
2024-03-07T16:32:24.525Z,6.47
2024-03-07T16:36:27.263Z,6.93
2024-03-07T16:40:29.975Z,5.10
2024-03-07T16:44:33.263Z,8.18
2024-03-07T16:48:35.128Z,5.65
2024-03-07T16:52:37.931Z,4.88
2024-03-07T16:56:42.099Z,4.97
2024-03-07T17:00:44.935Z,6.85
2024-03-07T17:04:48.578Z,6.43
2024-03-07T17:08:50.454Z,6.47
2024-03-07T17:12:52.396Z,6.45
2024-03-07T17:16:55.603Z,8.63
2024-03-07T17:20:57.184Z,6.45
2024-03-07T17:24:58.673Z,7.32
2024-03-07T17:29:00.154Z,7.30
2024-03-07T17:33:02.358Z,5.53
2024-03-07T17:37:05.939Z,5.65
2024-03-07T17:41:07.484Z,4.88
2024-03-07T17:45:12.208Z,7.57
2024-03-07T17:49:15.078Z,5.63
2024-03-07T17:53:17.520Z,5.30
2024-03-07T17:57:19.150Z,5.88
2024-03-07T18:01:20.673Z,7.32
2024-03-07T18:05:24.186Z,5.82
2024-03-07T18:09:29.203Z,5.32
2024-03-07T18:13:31.785Z,5.95
2024-03-07T18:17:35.201Z,5.75
2024-03-07T18:21:37.190Z,6.03
2024-03-07T18:25:38.745Z,6.10
2024-03-07T18:29:40.501Z,7.85
2024-03-07T18:33:46.053Z,6.05
2024-03-07T18:37:51.778Z,5.82
2024-03-07T18:41:53.367Z,5.87
2024-03-07T18:45:54.845Z,6.82
2024-03-07T18:49:56.439Z,6.13
2024-03-07T18:53:57.919Z,9.13
2024-03-07T18:58:04.252Z,7.10
2024-03-07T19:10:18.040Z,6.60
2024-03-07T19:14:19.944Z,6.65
2024-03-07T19:18:23.453Z,6.30
2024-03-07T19:22:26.560Z,5.60
2024-03-07T19:26:30.148Z,6.85
2024-03-07T19:30:31.650Z,9.70
2024-03-07T19:34:33.634Z,5.70
2024-03-07T19:38:36.027Z,7.22
2024-03-07T19:42:40.910Z,6.22
2024-03-07T19:46:43.829Z,6.40
2024-03-07T19:50:46.849Z,5.50
2024-03-07T19:54:48.843Z,6.53
2024-03-07T19:58:50.856Z,6.18
2024-03-07T20:02:52.465Z,7.25
2024-03-07T20:06:54.086Z,7.82
2024-03-07T20:10:57.278Z,5.57
2024-03-07T20:14:58.849Z,6.68
2024-03-07T20:19:01.605Z,7.40
2024-03-07T20:23:04.943Z,9.15
2024-03-07T20:27:06.743Z,7.38
2024-03-07T20:31:09.449Z,9.10
2024-03-07T20:35:12.694Z,7.13
2024-03-07T20:39:23.880Z,7.28
2024-03-07T20:43:25.479Z,7.82
2024-03-07T20:47:27.461Z,8.25
2024-03-07T20:51:34.045Z,10.00
2024-03-07T20:55:36.410Z,8.07
2024-03-07T20:59:37.885Z,8.27
2024-03-07T21:03:43.007Z,10.48
2024-03-07T21:07:47.431Z,8.32
2024-03-07T21:11:49.259Z,8.50
2024-03-07T21:15:50.992Z,8.00
2024-03-07T21:19:52.943Z,6.57
2024-03-07T21:23:54.578Z,7.40
2024-03-07T21:27:56.198Z,6.43
2024-03-07T21:31:58.077Z,11.80
2024-03-07T21:35:59.637Z,8.02
2024-03-07T21:40:02.134Z,9.23
2024-03-07T21:44:03.663Z,8.32
2024-03-07T21:48:07.706Z,9.82
2024-03-07T21:52:13.887Z,8.75
2024-03-07T21:56:15.403Z,8.07
2024-03-07T22:00:19.060Z,10.90
2024-03-07T22:04:21.127Z,11.10
2024-03-07T22:08:22.587Z,9.00
2024-03-07T22:12:24.177Z,9.60
2024-03-07T22:16:28.115Z,9.90
2024-03-07T22:20:30.096Z,9.88
2024-03-07T22:24:31.647Z,12.75
2024-03-07T22:28:34.568Z,10.00
2024-03-07T22:32:37.581Z,8.93
2024-03-07T22:36:46.207Z,9.73
2024-03-07T22:40:47.782Z,9.55
2024-03-07T22:44:49.266Z,9.10
2024-03-07T22:48:50.929Z,10.63
2024-03-07T22:52:52.439Z,8.65
2024-03-07T22:56:54.086Z,7.95
2024-03-07T23:00:55.864Z,7.68
2024-03-07T23:04:57.319Z,8.57
2024-03-07T23:09:04.907Z,8.90
2024-03-07T23:13:06.521Z,9.30
2024-03-07T23:17:09.483Z,8.18
2024-03-07T23:21:11.311Z,8.35
2024-03-07T23:25:14.529Z,10.05
2024-03-07T23:29:16.515Z,7.32
2024-03-07T23:33:18.247Z,7.95
2024-03-07T23:37:21.574Z,9.60
2024-03-07T23:41:23.142Z,10.75
2024-03-07T23:45:25.029Z,8.75
2024-03-07T23:49:26.629Z,8.93
2024-03-07T23:53:28.152Z,11.05
2024-03-07T23:57:31.665Z,7.63
